• Join FlightAware (Why Join?)
  • Login
  • US Flag 
11:27PM EDT


 

Airport Tracker/Info


-or-


 

Live Flight TrackerFlight Track Log ✈ SWA2521 ✈ 12-Jul-2014 ✈ KMDW - KLGA

Flight Track Log - Related Links

Times and Time Zones

All times are in EDT time to prevent confusion due to time zone crossing. See the SWA2521 flight status page for this flight to view local times or setup timezone preferences in your user account.

Time Position Orientation Groundspeed Altitude Reporting Facility
EDT Latitude Longitude Course Direction KTS MPH feet Rate Location/Type
08:36AM 41.7667 -87.7667 90° East 148 170 2,300  Level Chicago TRACON
08:37AM 41.7333 -87.7167 153° Southeast 217 250 3,200 2,460 Climbing Chicago TRACON
08:39AM 41.7306 -87.6031 92° East 230 265 8,200 3,060 Climbing Chicago Center
08:40AM 41.7369 -87.5058 85° East 272 313 10,500 2,700 Climbing Chicago Center
08:41AM 41.7433 -87.3900 86° East 312 359 13,800 3,300 Climbing Chicago Center
08:42AM 41.7667 -87.2963 90° East  Level FlightAware Approximate
08:42AM 41.7503 -87.2708 85° East 320 368 17,400  Level Chicago Center
08:43AM 41.7569 -87.1519 86° East 335 386 18,600 1,620 Climbing Chicago Center
08:44AM 41.7622 -87.0039 87° East 391 450 20,800 2,040 Climbing Chicago Center
08:45AM 41.7642 -86.8469 89° East 416 479 22,800 2,160 Climbing Chicago Center
08:46AM 41.7650 -86.6694 90° East 431 496 25,300 2,100 Climbing Chicago Center
08:47AM 41.7669 -86.5022 89° East 444 511 27,100 1,680 Climbing Chicago Center
08:48AM 41.7675 -86.3281 90° East 464 534 28,700 1,560 Climbing Chicago Center
08:49AM 41.7697 -86.1514 89° East 474 545 30,400 1,440 Climbing Chicago Center
08:50AM 41.7719 -85.9692 89° East 485 558 31,800 1,620 Climbing Chicago Center
08:51AM 41.7744 -85.7847 89° East 491 565 33,700 1,800 Climbing Chicago Center
08:52AM 41.7775 -85.6017 89° East 490 564 35,400 1,500 Climbing Chicago Center
08:53AM 41.7817 -85.4139 88° East 492 566 36,800 1,140 Climbing Chicago Center
08:54AM 41.7814 -85.2250 90° East 499 574 37,800 900 Climbing Chicago Center
08:55AM 41.7822 -85.0358 90° East 507 583 38,700 600 Climbing Chicago Center
08:56AM 41.7806 -84.8497 91° East 501 577 39,000 120 Climbing Cleveland Center
08:57AM 41.7783 -84.6669 91° East 498 573 39,000  Level Cleveland Center
08:58AM 41.7683 -84.4831 94° East 497 572 39,000  Level Cleveland Center
08:59AM 41.7575 -84.3011 95° East 493 567 39,000  Level Cleveland Center
09:00AM 41.7458 -84.1122 95° East 490 564 39,000  Level Cleveland Center
09:01AM 41.7344 -83.9333 95° East 487 560 39,000  Level Cleveland Center
09:02AM 41.7222 -83.7564 95° East 487 560 39,000  Level Cleveland Center
09:03AM 41.7106 -83.5789 95° East 485 558 39,000  Level Cleveland Center
09:04AM 41.6958 -83.3681 95° East 482 555 39,000  Level Cleveland Center
09:05AM 41.6842 -83.1928 95° East 480 552 39,000  Level Cleveland Center
09:06AM 41.6728 -83.0175 95° East 479 551 39,000  Level Cleveland Center
09:07AM 41.6597 -82.8431 96° East 477 549 39,000  Level Cleveland Center
09:08AM 41.6467 -82.6683 96° East 476 548 39,000  Level Cleveland Center
09:09AM 41.6325 -82.4858 96° East 476 548 39,000  Level Cleveland Center
09:10AM 41.6192 -82.3119 96° East 471 542 39,000  Level Cleveland Center
09:11AM 41.6058 -82.1378 96° East 469 540 39,000  Level Cleveland Center
09:12AM 41.5931 -81.9661 96° East 463 533 39,000  Level Cleveland Center
09:13AM 41.5786 -81.7908 96° East 464 534 39,000  Level Cleveland Center
09:14AM 41.5653 -81.6139 96° East 467 537 39,000  Level Cleveland Center
09:15AM 41.5492 -81.4381 97° East 467 537 39,000  Level Cleveland Center
09:16AM 41.5308 -81.2347 97° East 467 537 39,000  Level Cleveland Center
09:17AM 41.5153 -81.0600 97° East 468 539 39,000  Level Cleveland Center
09:18AM 41.4997 -80.8858 97° East 470 541 39,000  Level Cleveland Center
09:19AM 41.4833 -80.7106 97° East 471 542 39,000  Level Cleveland Center
09:20AM 41.4675 -80.5347 97° East 473 544 39,000  Level Cleveland Center
09:21AM 41.4517 -80.3617 97° East 470 541 39,000  Level Cleveland Center
09:22AM 41.4350 -80.1956 98° East 469 540 39,000  Level Cleveland Center
09:23AM 41.4183 -80.0239 97° East 470 541 39,000  Level Cleveland Center
09:24AM 41.3997 -79.8361 97° East 468 539 39,000  Level Cleveland Center
09:25AM 41.3825 -79.6653 98° East 469 540 39,000  Level Cleveland Center
09:26AM 41.3633 -79.4731 98° East 469 540 39,000  Level Cleveland Center
09:28AM 41.3458 -79.3031 98° East 468 539 39,000  Level Cleveland Center
09:29AM 41.3261 -79.1208 98° East 467 537 39,000  Level Cleveland Center
09:30AM 41.3081 -78.9506 98° East 467 537 39,000  Level Cleveland Center
09:31AM 41.2908 -78.7881 98° East 468 539 39,000  Level Cleveland Center
09:32AM 41.2722 -78.6172 98° East 469 540 39,000 -840 Level Cleveland Center
09:33AM 41.2522 -78.4442 99° East 470 541 37,400 -2,100 Descending Cleveland Center
09:34AM 41.2325 -78.2747 99° East 470 541 34,700 -2,160 Descending Cleveland Center
09:35AM 41.2108 -78.0903 99° East 467 537 33,000 -840 Descending Cleveland Center
09:36AM 41.1897 -77.9256 100° East 461 531 33,000  Level Cleveland Center
09:37AM 41.1647 -77.7308 100° East 453 521 33,000  Level Cleveland Center
09:38AM 41.1450 -77.5708 99° East 448 516 33,000  Level Cleveland Center
09:39AM 41.1250 -77.4108 99° East 447 514 33,000 -660 Level Cleveland Center
09:40AM 41.1053 -77.2808 101° East 444 511 31,800 -1,920 Descending New York Center
09:41AM 41.0850 -77.1192 99° East 439 505 29,600 -2,160 Descending New York Center
09:42AM 41.0619 -76.9656 101° East 434 499 27,600 -1,980 Descending New York Center
09:43AM 41.0408 -76.8097 100° East 429 494 25,700 -1,680 Descending New York Center
09:44AM 41.0208 -76.6647 100° East 416 479 24,200 -1,740 Descending New York Center
09:45AM 40.9842 -76.5214 109° East 411 473 22,200 -2,100 Descending New York Center
09:46AM 40.9514 -76.3786 107° East 411 473 20,100 -2,100 Descending New York Center
09:47AM 40.9239 -76.2553 106° East 396 456 18,100 -1,080 Descending New York Center
09:48AM 40.8944 -76.1239 106° East 381 438 18,000 -960 Descending New York Center
09:49AM 40.8589 -75.9867 109° East 370 426 16,300 -1,680 Descending New York Center
09:50AM 40.8269 -75.8581 108° East 370 426 14,700 -1,680 Descending New York Center
09:51AM 40.7947 -75.7378 109° East 365 420 13,000 -1,380 Descending New York Center
09:52AM 40.7561 -75.6117 112° Southeast 360 414 12,000 -1,020 Descending New York Center
09:53AM 40.7214 -75.4942 111° Southeast 372 428 11,100 -960 Descending New York Center
09:54AM 40.6783 -75.3656 114° Southeast 379 436 10,100 -600 Descending New York Center
09:55AM 40.6417 -75.2400 111° Southeast 374 430 10,000 -60 Descending New York Center
09:56AM 40.6025 -75.1117 112° Southeast 374 430 10,000  Level New York Center
09:57AM 40.5633 -74.9889 113° Southeast 369 425 10,000  Level New York Center
09:58AM 40.5244 -74.8528 111° Southeast 364 419 10,000  Level New York Center
09:59AM 40.4847 -74.7275 113° Southeast 364 419 10,000  Level New York Center
09:59AM 40.4500 -74.6167 112° Southeast 350 403 10,000 -480 Level New York TRACON
10:00AM 40.4333 -74.5333 105° East 306 352 9,200 -960 Descending New York TRACON
10:01AM 40.4667 -74.4167 69° East 295 339 8,200 -1,020 Descending New York TRACON
10:02AM 40.4833 -74.3167 78° East 289 333 7,100 -600 Descending New York TRACON
10:03AM 40.5167 -74.2167 66° East 280 322 7,000 -60 Descending New York TRACON
10:04AM 40.5333 -74.1333 75° East 240 276 7,000 -480 Level New York TRACON
10:05AM 40.5667 -74.0667 57° Northeast 202 232 6,100 -1,080 Descending New York TRACON
10:06AM 40.6167 -74.0333 27° Northeast 202 232 5,000 -1,080 Descending New York TRACON
10:07AM 40.6500 -73.9833 49° Northeast 191 220 4,000 -1,020 Descending New York TRACON
10:08AM 40.7000 -73.9500 27° Northeast 187 215 2,900 -1,020 Descending New York TRACON
10:09AM 40.7167 -73.8833 72° East 181 208 2,000 -900 Descending New York TRACON
10:10AM 40.7333 -73.8333 66° East 158 182 1,100 -900 Descending New York TRACON
10:11AM 40.7667 -73.8500 339° North 145 167 200 -900 Descending New York TRACON
10:18AM 40.7667 -73.8667 189° South  Level FlightAware Approximate
10:25AM 40.7772 -73.8726 189° South  Level Estimated
10:26AM 40.7772 -73.8726 189° South  Level Estimated
10:27AM 40.7772 -73.8726 189° South  Level Estimated